sensor_id;sensor_type;location;lat;lon;timestamp;P1;durP1;ratioP1;P2;durP2;ratioP2
36725;SDS011;44936;52.086;5.150;2023-07-08T00:00:22;2.13;;;1.20;;
36725;SDS011;44936;52.086;5.150;2023-07-08T00:02:48;1.10;;;0.90;;
36725;SDS011;44936;52.086;5.150;2023-07-08T00:05:15;1.50;;;1.20;;
36725;SDS011;44936;52.086;5.150;2023-07-08T00:07:43;2.65;;;1.40;;
36725;SDS011;44936;52.086;5.150;2023-07-08T00:10:18;1.80;;;1.10;;
36725;SDS011;44936;52.086;5.150;2023-07-08T00:12:50;3.25;;;1.33;;
36725;SDS011;44936;52.086;5.150;2023-07-08T00:15:17;1.77;;;1.10;;
36725;SDS011;44936;52.086;5.150;2023-07-08T00:17:44;3.15;;;1.27;;
36725;SDS011;44936;52.086;5.150;2023-07-08T00:20:14;2.50;;;1.23;;
36725;SDS011;44936;52.086;5.150;2023-07-08T00:22:45;2.10;;;1.25;;
36725;SDS011;44936;52.086;5.150;2023-07-08T00:25:17;2.78;;;1.17;;
36725;SDS011;44936;52.086;5.150;2023-07-08T00:27:45;1.60;;;1.15;;
36725;SDS011;44936;52.086;5.150;2023-07-08T00:30:22;3.50;;;1.30;;
36725;SDS011;44936;52.086;5.150;2023-07-08T00:32:51;6.18;;;1.40;;
36725;SDS011;44936;52.086;5.150;2023-07-08T00:35:21;3.10;;;1.45;;
36725;SDS011;44936;52.086;5.150;2023-07-08T00:37:49;2.30;;;1.48;;
36725;SDS011;44936;52.086;5.150;2023-07-08T00:40:17;3.40;;;1.17;;
36725;SDS011;44936;52.086;5.150;2023-07-08T00:42:45;2.00;;;1.27;;
36725;SDS011;44936;52.086;5.150;2023-07-08T00:47:55;5.30;;;1.53;;
36725;SDS011;44936;52.086;5.150;2023-07-08T00:50:28;2.35;;;1.42;;
36725;SDS011;44936;52.086;5.150;2023-07-08T00:55:47;2.50;;;1.08;;
36725;SDS011;44936;52.086;5.150;2023-07-08T00:58:13;1.77;;;1.10;;
36725;SDS011;44936;52.086;5.150;2023-07-08T01:00:39;2.33;;;1.20;;
36725;SDS011;44936;52.086;5.150;2023-07-08T01:03:05;2.53;;;1.25;;
36725;SDS011;44936;52.086;5.150;2023-07-08T01:05:30;2.13;;;1.27;;
36725;SDS011;44936;52.086;5.150;2023-07-08T01:07:58;2.13;;;1.27;;
36725;SDS011;44936;52.086;5.150;2023-07-08T01:10:30;2.35;;;1.20;;
36725;SDS011;44936;52.086;5.150;2023-07-08T01:13:02;1.67;;;1.23;;
36725;SDS011;44936;52.086;5.150;2023-07-08T01:15:39;1.50;;;1.20;;
36725;SDS011;44936;52.086;5.150;2023-07-08T01:18:08;1.55;;;1.02;;
36725;SDS011;44936;52.086;5.150;2023-07-08T01:20:35;2.33;;;1.40;;
36725;SDS011;44936;52.086;5.150;2023-07-08T01:23:00;2.83;;;0.98;;
36725;SDS011;44936;52.086;5.150;2023-07-08T01:25:26;2.60;;;1.33;;
36725;SDS011;44936;52.086;5.150;2023-07-08T01:27:54;1.88;;;1.27;;
36725;SDS011;44936;52.086;5.150;2023-07-08T01:30:22;2.03;;;1.30;;
36725;SDS011;44936;52.086;5.150;2023-07-08T01:32:48;1.95;;;1.13;;
36725;SDS011;44936;52.086;5.150;2023-07-08T01:35:17;2.67;;;1.17;;
36725;SDS011;44936;52.086;5.150;2023-07-08T01:37:44;1.23;;;1.08;;
36725;SDS011;44936;52.086;5.150;2023-07-08T01:40:28;1.98;;;1.23;;
36725;SDS011;44936;52.086;5.150;2023-07-08T01:43:01;1.70;;;0.90;;
36725;SDS011;44936;52.086;5.150;2023-07-08T01:45:34;1.60;;;1.25;;
36725;SDS011;44936;52.086;5.150;2023-07-08T01:48:04;4.43;;;1.23;;
36725;SDS011;44936;52.086;5.150;2023-07-08T01:50:32;1.98;;;1.25;;
36725;SDS011;44936;52.086;5.150;2023-07-08T01:53:02;2.22;;;1.27;;
36725;SDS011;44936;52.086;5.150;2023-07-08T01:55:33;2.65;;;1.55;;
36725;SDS011;44936;52.086;5.150;2023-07-08T01:57:59;2.50;;;1.52;;
36725;SDS011;44936;52.086;5.150;2023-07-08T02:00:25;3.38;;;1.30;;
36725;SDS011;44936;52.086;5.150;2023-07-08T02:02:51;1.80;;;1.30;;
36725;SDS011;44936;52.086;5.150;2023-07-08T02:05:16;3.63;;;1.60;;
36725;SDS011;44936;52.086;5.150;2023-07-08T02:07:42;1.38;;;1.10;;
36725;SDS011;44936;52.086;5.150;2023-07-08T02:10:07;2.90;;;1.30;;
36725;SDS011;44936;52.086;5.150;2023-07-08T02:12:33;1.58;;;1.00;;
36725;SDS011;44936;52.086;5.150;2023-07-08T02:15:01;1.55;;;1.20;;
36725;SDS011;44936;52.086;5.150;2023-07-08T02:17:27;2.78;;;1.40;;
36725;SDS011;44936;52.086;5.150;2023-07-08T02:19:54;2.65;;;1.20;;
36725;SDS011;44936;52.086;5.150;2023-07-08T02:22:20;2.78;;;1.40;;
36725;SDS011;44936;52.086;5.150;2023-07-08T02:24:45;2.00;;;1.30;;
36725;SDS011;44936;52.086;5.150;2023-07-08T02:27:11;2.08;;;1.20;;
36725;SDS011;44936;52.086;5.150;2023-07-08T02:29:36;1.52;;;1.08;;
36725;SDS011;44936;52.086;5.150;2023-07-08T02:32:03;4.28;;;1.63;;
36725;SDS011;44936;52.086;5.150;2023-07-08T02:34:29;2.80;;;1.42;;
36725;SDS011;44936;52.086;5.150;2023-07-08T02:36:58;3.05;;;1.50;;
36725;SDS011;44936;52.086;5.150;2023-07-08T02:39:27;2.08;;;1.20;;
36725;SDS011;44936;52.086;5.150;2023-07-08T02:41:52;3.78;;;1.30;;
36725;SDS011;44936;52.086;5.150;2023-07-08T02:44:18;2.00;;;1.38;;
36725;SDS011;44936;52.086;5.150;2023-07-08T02:46:43;1.60;;;1.30;;
36725;SDS011;44936;52.086;5.150;2023-07-08T02:49:09;1.65;;;1.33;;
36725;SDS011;44936;52.086;5.150;2023-07-08T02:51:34;2.65;;;1.30;;
36725;SDS011;44936;52.086;5.150;2023-07-08T02:54:00;2.53;;;1.20;;
36725;SDS011;44936;52.086;5.150;2023-07-08T02:56:25;6.60;;;1.80;;
36725;SDS011;44936;52.086;5.150;2023-07-08T02:58:53;3.38;;;1.63;;
36725;SDS011;44936;52.086;5.150;2023-07-08T03:01:19;2.72;;;1.40;;
36725;SDS011;44936;52.086;5.150;2023-07-08T03:03:45;2.22;;;1.17;;
36725;SDS011;44936;52.086;5.150;2023-07-08T03:06:11;2.85;;;1.23;;
36725;SDS011;44936;52.086;5.150;2023-07-08T03:08:36;3.40;;;1.38;;
36725;SDS011;44936;52.086;5.150;2023-07-08T03:11:04;2.50;;;1.35;;
36725;SDS011;44936;52.086;5.150;2023-07-08T03:13:32;2.08;;;1.35;;
36725;SDS011;44936;52.086;5.150;2023-07-08T03:15:58;6.32;;;1.45;;
36725;SDS011;44936;52.086;5.150;2023-07-08T03:18:25;4.35;;;1.25;;
36725;SDS011;44936;52.086;5.150;2023-07-08T03:20:52;1.95;;;1.10;;
36725;SDS011;44936;52.086;5.150;2023-07-08T03:23:24;3.17;;;1.15;;
36725;SDS011;44936;52.086;5.150;2023-07-08T03:25:50;4.13;;;1.70;;
36725;SDS011;44936;52.086;5.150;2023-07-08T03:28:16;2.70;;;1.70;;
36725;SDS011;44936;52.086;5.150;2023-07-08T03:30:42;1.52;;;1.30;;
36725;SDS011;44936;52.086;5.150;2023-07-08T03:33:08;2.65;;;1.48;;
36725;SDS011;44936;52.086;5.150;2023-07-08T03:35:35;2.22;;;1.42;;
36725;SDS011;44936;52.086;5.150;2023-07-08T03:38:01;2.63;;;1.90;;
36725;SDS011;44936;52.086;5.150;2023-07-08T03:40:27;2.53;;;1.35;;
36725;SDS011;44936;52.086;5.150;2023-07-08T03:42:52;2.20;;;1.20;;
36725;SDS011;44936;52.086;5.150;2023-07-08T03:45:17;2.30;;;1.30;;
36725;SDS011;44936;52.086;5.150;2023-07-08T03:47:43;1.80;;;1.40;;
36725;SDS011;44936;52.086;5.150;2023-07-08T03:50:29;2.15;;;1.27;;
36725;SDS011;44936;52.086;5.150;2023-07-08T03:52:55;1.63;;;1.27;;
36725;SDS011;44936;52.086;5.150;2023-07-08T03:55:21;2.28;;;1.25;;
36725;SDS011;44936;52.086;5.150;2023-07-08T03:57:47;1.90;;;1.17;;
36725;SDS011;44936;52.086;5.150;2023-07-08T04:00:13;2.35;;;1.23;;
36725;SDS011;44936;52.086;5.150;2023-07-08T04:02:40;3.15;;;1.40;;
36725;SDS011;44936;52.086;5.150;2023-07-08T04:05:16;2.05;;;1.38;;
36725;SDS011;44936;52.086;5.150;2023-07-08T04:07:46;1.48;;;1.10;;
36725;SDS011;44936;52.086;5.150;2023-07-08T04:10:12;3.22;;;1.20;;
36725;SDS011;44936;52.086;5.150;2023-07-08T04:12:38;3.22;;;1.60;;
36725;SDS011;44936;52.086;5.150;2023-07-08T04:15:04;2.58;;;1.25;;
36725;SDS011;44936;52.086;5.150;2023-07-08T04:17:30;1.55;;;1.35;;
36725;SDS011;44936;52.086;5.150;2023-07-08T04:19:55;2.00;;;1.27;;
36725;SDS011;44936;52.086;5.150;2023-07-08T04:22:22;2.05;;;1.20;;
36725;SDS011;44936;52.086;5.150;2023-07-08T04:24:47;2.15;;;1.30;;
36725;SDS011;44936;52.086;5.150;2023-07-08T04:27:14;3.95;;;1.83;;
36725;SDS011;44936;52.086;5.150;2023-07-08T04:29:41;2.85;;;1.40;;
36725;SDS011;44936;52.086;5.150;2023-07-08T04:32:06;2.35;;;1.33;;
36725;SDS011;44936;52.086;5.150;2023-07-08T04:34:32;3.58;;;1.50;;
36725;SDS011;44936;52.086;5.150;2023-07-08T04:36:58;1.70;;;1.02;;
36725;SDS011;44936;52.086;5.150;2023-07-08T04:39:32;3.60;;;1.35;;
36725;SDS011;44936;52.086;5.150;2023-07-08T04:41:57;1.33;;;1.10;;
36725;SDS011;44936;52.086;5.150;2023-07-08T04:44:23;2.25;;;1.20;;
36725;SDS011;44936;52.086;5.150;2023-07-08T04:46:51;1.63;;;1.20;;
36725;SDS011;44936;52.086;5.150;2023-07-08T04:49:19;2.25;;;1.35;;
36725;SDS011;44936;52.086;5.150;2023-07-08T04:51:47;2.13;;;1.20;;
36725;SDS011;44936;52.086;5.150;2023-07-08T04:54:12;2.22;;;1.55;;
36725;SDS011;44936;52.086;5.150;2023-07-08T04:56:42;2.90;;;1.80;;
36725;SDS011;44936;52.086;5.150;2023-07-08T04:59:09;3.05;;;1.80;;
36725;SDS011;44936;52.086;5.150;2023-07-08T05:01:38;2.67;;;1.42;;
36725;SDS011;44936;52.086;5.150;2023-07-08T05:04:04;2.53;;;1.30;;
36725;SDS011;44936;52.086;5.150;2023-07-08T05:06:33;2.97;;;1.23;;
36725;SDS011;44936;52.086;5.150;2023-07-08T05:08:59;2.55;;;1.40;;
36725;SDS011;44936;52.086;5.150;2023-07-08T05:11:26;3.55;;;1.40;;
36725;SDS011;44936;52.086;5.150;2023-07-08T05:13:52;2.30;;;1.73;;
36725;SDS011;44936;52.086;5.150;2023-07-08T05:16:17;2.35;;;1.20;;
36725;SDS011;44936;52.086;5.150;2023-07-08T05:18:43;2.63;;;1.20;;
36725;SDS011;44936;52.086;5.150;2023-07-08T05:21:09;3.85;;;1.58;;
36725;SDS011;44936;52.086;5.150;2023-07-08T05:23:35;3.05;;;1.20;;
36725;SDS011;44936;52.086;5.150;2023-07-08T05:26:01;5.43;;;1.40;;
36725;SDS011;44936;52.086;5.150;2023-07-08T05:28:28;2.20;;;1.67;;
36725;SDS011;44936;52.086;5.150;2023-07-08T05:30:54;2.78;;;1.52;;
36725;SDS011;44936;52.086;5.150;2023-07-08T05:33:21;2.28;;;1.70;;
36725;SDS011;44936;52.086;5.150;2023-07-08T05:35:47;2.28;;;1.58;;
36725;SDS011;44936;52.086;5.150;2023-07-08T05:38:13;2.58;;;1.27;;
36725;SDS011;44936;52.086;5.150;2023-07-08T05:40:38;1.95;;;1.25;;
36725;SDS011;44936;52.086;5.150;2023-07-08T05:43:04;1.38;;;1.10;;
36725;SDS011;44936;52.086;5.150;2023-07-08T05:45:29;1.30;;;1.20;;
36725;SDS011;44936;52.086;5.150;2023-07-08T05:47:57;1.83;;;1.00;;
36725;SDS011;44936;52.086;5.150;2023-07-08T05:50:23;2.83;;;1.30;;
36725;SDS011;44936;52.086;5.150;2023-07-08T05:52:49;2.85;;;1.48;;
36725;SDS011;44936;52.086;5.150;2023-07-08T05:55:14;1.35;;;1.10;;
36725;SDS011;44936;52.086;5.150;2023-07-08T05:57:40;1.38;;;1.10;;
36725;SDS011;44936;52.086;5.150;2023-07-08T06:00:05;2.17;;;1.25;;
36725;SDS011;44936;52.086;5.150;2023-07-08T06:02:31;3.03;;;1.40;;
36725;SDS011;44936;52.086;5.150;2023-07-08T06:04:57;3.35;;;1.42;;
36725;SDS011;44936;52.086;5.150;2023-07-08T06:07:22;2.05;;;1.30;;
36725;SDS011;44936;52.086;5.150;2023-07-08T06:09:48;3.38;;;1.50;;
36725;SDS011;44936;52.086;5.150;2023-07-08T06:12:13;1.45;;;1.13;;
36725;SDS011;44936;52.086;5.150;2023-07-08T06:14:38;2.47;;;1.38;;
36725;SDS011;44936;52.086;5.150;2023-07-08T06:17:04;2.33;;;1.17;;
36725;SDS011;44936;52.086;5.150;2023-07-08T06:19:30;2.65;;;1.20;;
36725;SDS011;44936;52.086;5.150;2023-07-08T06:21:55;2.17;;;1.45;;
36725;SDS011;44936;52.086;5.150;2023-07-08T06:24:21;2.45;;;1.42;;
36725;SDS011;44936;52.086;5.150;2023-07-08T06:26:46;1.70;;;1.08;;
36725;SDS011;44936;52.086;5.150;2023-07-08T06:29:12;2.30;;;1.27;;
36725;SDS011;44936;52.086;5.150;2023-07-08T06:31:37;1.77;;;1.15;;
36725;SDS011;44936;52.086;5.150;2023-07-08T06:34:03;2.65;;;1.17;;
36725;SDS011;44936;52.086;5.150;2023-07-08T06:36:29;2.88;;;1.35;;
36725;SDS011;44936;52.086;5.150;2023-07-08T06:38:55;3.47;;;1.30;;
36725;SDS011;44936;52.086;5.150;2023-07-08T06:41:20;2.38;;;1.20;;
36725;SDS011;44936;52.086;5.150;2023-07-08T06:43:46;2.20;;;1.23;;
36725;SDS011;44936;52.086;5.150;2023-07-08T06:46:11;3.15;;;1.17;;
36725;SDS011;44936;52.086;5.150;2023-07-08T06:48:37;1.55;;;1.02;;
36725;SDS011;44936;52.086;5.150;2023-07-08T06:51:02;2.20;;;1.42;;
36725;SDS011;44936;52.086;5.150;2023-07-08T06:53:28;4.50;;;1.58;;
36725;SDS011;44936;52.086;5.150;2023-07-08T06:55:53;1.83;;;1.10;;
36725;SDS011;44936;52.086;5.150;2023-07-08T06:58:19;2.17;;;1.40;;
36725;SDS011;44936;52.086;5.150;2023-07-08T07:00:44;2.63;;;1.30;;
36725;SDS011;44936;52.086;5.150;2023-07-08T07:03:10;2.03;;;1.35;;
36725;SDS011;44936;52.086;5.150;2023-07-08T07:05:37;1.60;;;1.15;;
36725;SDS011;44936;52.086;5.150;2023-07-08T07:08:02;2.35;;;1.20;;
36725;SDS011;44936;52.086;5.150;2023-07-08T07:10:28;1.52;;;1.25;;
36725;SDS011;44936;52.086;5.150;2023-07-08T07:12:54;3.70;;;1.15;;
36725;SDS011;44936;52.086;5.150;2023-07-08T07:15:19;2.60;;;1.30;;
36725;SDS011;44936;52.086;5.150;2023-07-08T07:17:45;1.75;;;1.27;;
36725;SDS011;44936;52.086;5.150;2023-07-08T07:20:10;2.72;;;1.20;;
36725;SDS011;44936;52.086;5.150;2023-07-08T07:22:36;1.30;;;1.02;;
36725;SDS011;44936;52.086;5.150;2023-07-08T07:25:01;2.83;;;1.30;;
36725;SDS011;44936;52.086;5.150;2023-07-08T07:27:27;2.40;;;1.30;;
36725;SDS011;44936;52.086;5.150;2023-07-08T07:29:53;3.40;;;1.50;;
36725;SDS011;44936;52.086;5.150;2023-07-08T07:32:18;3.05;;;1.08;;
36725;SDS011;44936;52.086;5.150;2023-07-08T07:34:47;2.47;;;1.52;;
36725;SDS011;44936;52.086;5.150;2023-07-08T07:37:14;3.60;;;1.40;;
36725;SDS011;44936;52.086;5.150;2023-07-08T07:39:41;1.85;;;1.45;;
36725;SDS011;44936;52.086;5.150;2023-07-08T07:42:07;3.53;;;1.80;;
36725;SDS011;44936;52.086;5.150;2023-07-08T07:44:33;3.13;;;1.58;;
36725;SDS011;44936;52.086;5.150;2023-07-08T07:46:58;2.22;;;1.58;;
36725;SDS011;44936;52.086;5.150;2023-07-08T07:49:24;2.00;;;1.17;;
36725;SDS011;44936;52.086;5.150;2023-07-08T07:51:49;2.63;;;1.30;;
36725;SDS011;44936;52.086;5.150;2023-07-08T07:54:15;1.77;;;1.23;;
36725;SDS011;44936;52.086;5.150;2023-07-08T07:56:41;5.68;;;1.48;;
36725;SDS011;44936;52.086;5.150;2023-07-08T07:59:06;3.35;;;1.75;;
36725;SDS011;44936;52.086;5.150;2023-07-08T08:01:32;1.40;;;1.08;;
36725;SDS011;44936;52.086;5.150;2023-07-08T08:03:57;1.70;;;1.20;;
36725;SDS011;44936;52.086;5.150;2023-07-08T08:06:23;4.05;;;1.40;;
36725;SDS011;44936;52.086;5.150;2023-07-08T08:08:48;2.42;;;1.35;;
36725;SDS011;44936;52.086;5.150;2023-07-08T08:11:14;1.33;;;1.13;;
36725;SDS011;44936;52.086;5.150;2023-07-08T08:13:40;1.92;;;1.25;;
36725;SDS011;44936;52.086;5.150;2023-07-08T08:16:06;2.90;;;1.30;;
36725;SDS011;44936;52.086;5.150;2023-07-08T08:18:31;2.08;;;1.40;;
36725;SDS011;44936;52.086;5.150;2023-07-08T08:20:56;3.13;;;1.63;;
36725;SDS011;44936;52.086;5.150;2023-07-08T08:23:22;1.55;;;1.17;;
36725;SDS011;44936;52.086;5.150;2023-07-08T08:25:48;1.98;;;1.40;;
36725;SDS011;44936;52.086;5.150;2023-07-08T08:28:15;4.32;;;1.60;;
36725;SDS011;44936;52.086;5.150;2023-07-08T08:30:41;1.67;;;1.42;;
36725;SDS011;44936;52.086;5.150;2023-07-08T08:33:06;2.72;;;1.20;;
36725;SDS011;44936;52.086;5.150;2023-07-08T08:35:31;2.28;;;1.40;;
36725;SDS011;44936;52.086;5.150;2023-07-08T08:37:57;1.98;;;1.30;;
36725;SDS011;44936;52.086;5.150;2023-07-08T08:40:22;3.35;;;1.63;;
36725;SDS011;44936;52.086;5.150;2023-07-08T08:42:57;3.15;;;1.40;;
36725;SDS011;44936;52.086;5.150;2023-07-08T08:45:36;3.97;;;1.50;;
36725;SDS011;44936;52.086;5.150;2023-07-08T08:48:10;5.05;;;1.60;;
36725;SDS011;44936;52.086;5.150;2023-07-08T08:50:43;1.38;;;1.13;;
36725;SDS011;44936;52.086;5.150;2023-07-08T08:53:19;2.58;;;1.40;;
36725;SDS011;44936;52.086;5.150;2023-07-08T08:55:46;3.58;;;1.90;;
36725;SDS011;44936;52.086;5.150;2023-07-08T09:00:57;2.85;;;1.35;;
36725;SDS011;44936;52.086;5.150;2023-07-08T09:06:24;5.45;;;1.83;;
36725;SDS011;44936;52.086;5.150;2023-07-08T09:08:52;4.07;;;1.50;;
36725;SDS011;44936;52.086;5.150;2023-07-08T09:13:47;5.22;;;1.70;;
36725;SDS011;44936;52.086;5.150;2023-07-08T09:19:06;2.45;;;1.35;;
36725;SDS011;44936;52.086;5.150;2023-07-08T09:24:27;3.05;;;1.50;;
36725;SDS011;44936;52.086;5.150;2023-07-08T09:27:06;3.58;;;2.05;;
36725;SDS011;44936;52.086;5.150;2023-07-08T09:29:32;3.28;;;1.38;;
36725;SDS011;44936;52.086;5.150;2023-07-08T09:31:58;3.53;;;1.58;;
36725;SDS011;44936;52.086;5.150;2023-07-08T09:34:36;3.67;;;1.70;;
36725;SDS011;44936;52.086;5.150;2023-07-08T09:37:17;2.53;;;1.60;;
36725;SDS011;44936;52.086;5.150;2023-07-08T09:39:48;2.97;;;1.40;;
36725;SDS011;44936;52.086;5.150;2023-07-08T09:42:14;3.30;;;1.88;;
36725;SDS011;44936;52.086;5.150;2023-07-08T09:44:41;6.43;;;2.03;;
36725;SDS011;44936;52.086;5.150;2023-07-08T09:47:26;4.25;;;1.60;;
36725;SDS011;44936;52.086;5.150;2023-07-08T09:49:56;4.45;;;1.60;;
36725;SDS011;44936;52.086;5.150;2023-07-08T09:52:22;3.08;;;1.58;;
36725;SDS011;44936;52.086;5.150;2023-07-08T09:54:48;4.68;;;1.42;;
36725;SDS011;44936;52.086;5.150;2023-07-08T09:59:46;3.58;;;1.60;;
36725;SDS011;44936;52.086;5.150;2023-07-08T10:02:28;4.55;;;2.20;;
36725;SDS011;44936;52.086;5.150;2023-07-08T10:04:57;3.90;;;1.80;;
36725;SDS011;44936;52.086;5.150;2023-07-08T10:07:27;4.80;;;1.90;;
36725;SDS011;44936;52.086;5.150;2023-07-08T10:09:56;4.40;;;1.50;;
36725;SDS011;44936;52.086;5.150;2023-07-08T10:12:24;5.00;;;1.80;;
36725;SDS011;44936;52.086;5.150;2023-07-08T10:14:51;4.43;;;1.77;;
36725;SDS011;44936;52.086;5.150;2023-07-08T10:17:20;3.55;;;1.95;;
36725;SDS011;44936;52.086;5.150;2023-07-08T10:19:46;3.60;;;1.75;;
36725;SDS011;44936;52.086;5.150;2023-07-08T10:22:22;5.20;;;1.90;;
36725;SDS011;44936;52.086;5.150;2023-07-08T10:27:38;4.10;;;2.50;;
36725;SDS011;44936;52.086;5.150;2023-07-08T10:30:26;6.38;;;1.90;;
36725;SDS011;44936;52.086;5.150;2023-07-08T10:33:16;2.88;;;1.85;;
36725;SDS011;44936;52.086;5.150;2023-07-08T10:36:09;4.07;;;2.05;;
36725;SDS011;44936;52.086;5.150;2023-07-08T10:38:42;4.38;;;1.73;;
36725;SDS011;44936;52.086;5.150;2023-07-08T10:41:23;3.28;;;1.70;;
36725;SDS011;44936;52.086;5.150;2023-07-08T10:43:55;8.38;;;1.95;;
36725;SDS011;44936;52.086;5.150;2023-07-08T11:07:34;4.07;;;1.90;;
36725;SDS011;44936;52.086;5.150;2023-07-08T11:10:09;4.55;;;1.73;;
36725;SDS011;44936;52.086;5.150;2023-07-08T11:12:41;3.88;;;2.08;;
36725;SDS011;44936;52.086;5.150;2023-07-08T11:17:54;3.05;;;1.88;;
36725;SDS011;44936;52.086;5.150;2023-07-08T11:23:00;5.40;;;2.00;;
36725;SDS011;44936;52.086;5.150;2023-07-08T11:25:33;4.00;;;1.83;;
36725;SDS011;44936;52.086;5.150;2023-07-08T11:28:02;3.25;;;1.67;;
36725;SDS011;44936;52.086;5.150;2023-07-08T11:30:30;5.10;;;2.45;;
36725;SDS011;44936;52.086;5.150;2023-07-08T11:33:04;4.93;;;2.42;;
36725;SDS011;44936;52.086;5.150;2023-07-08T11:40:31;8.15;;;1.90;;
36725;SDS011;44936;52.086;5.150;2023-07-08T11:43:14;4.05;;;1.52;;
36725;SDS011;44936;52.086;5.150;2023-07-08T11:45:40;6.90;;;2.10;;
36725;SDS011;44936;52.086;5.150;2023-07-08T11:48:12;4.53;;;1.55;;
36725;SDS011;44936;52.086;5.150;2023-07-08T11:51:04;3.70;;;1.83;;
36725;SDS011;44936;52.086;5.150;2023-07-08T11:56:00;4.43;;;1.80;;
36725;SDS011;44936;52.086;5.150;2023-07-08T11:58:31;4.97;;;1.88;;
36725;SDS011;44936;52.086;5.150;2023-07-08T12:09:12;4.18;;;1.80;;
36725;SDS011;44936;52.086;5.150;2023-07-08T12:11:53;4.40;;;1.90;;
36725;SDS011;44936;52.086;5.150;2023-07-08T12:14:22;4.65;;;1.95;;
36725;SDS011;44936;52.086;5.150;2023-07-08T12:16:49;2.80;;;1.42;;
36725;SDS011;44936;52.086;5.150;2023-07-08T12:19:16;8.02;;;2.50;;
36725;SDS011;44936;52.086;5.150;2023-07-08T12:21:45;4.00;;;1.83;;
36725;SDS011;44936;52.086;5.150;2023-07-08T12:24:11;3.58;;;1.90;;
36725;SDS011;44936;52.086;5.150;2023-07-08T12:26:39;4.20;;;1.63;;
36725;SDS011;44936;52.086;5.150;2023-07-08T12:29:05;4.20;;;2.17;;
36725;SDS011;44936;52.086;5.150;2023-07-08T12:31:31;4.45;;;1.98;;
36725;SDS011;44936;52.086;5.150;2023-07-08T12:33:57;4.93;;;2.10;;
36725;SDS011;44936;52.086;5.150;2023-07-08T12:36:28;6.53;;;2.17;;
36725;SDS011;44936;52.086;5.150;2023-07-08T12:38:56;3.92;;;2.00;;
36725;SDS011;44936;52.086;5.150;2023-07-08T12:41:25;5.10;;;2.30;;
36725;SDS011;44936;52.086;5.150;2023-07-08T12:43:54;4.47;;;2.10;;
36725;SDS011;44936;52.086;5.150;2023-07-08T12:46:21;5.20;;;2.13;;
36725;SDS011;44936;52.086;5.150;2023-07-08T12:48:47;4.38;;;2.10;;
36725;SDS011;44936;52.086;5.150;2023-07-08T12:51:17;4.72;;;2.30;;
36725;SDS011;44936;52.086;5.150;2023-07-08T12:53:48;6.32;;;2.42;;
36725;SDS011;44936;52.086;5.150;2023-07-08T12:56:15;5.70;;;1.88;;
36725;SDS011;44936;52.086;5.150;2023-07-08T12:58:43;7.43;;;2.38;;
36725;SDS011;44936;52.086;5.150;2023-07-08T13:01:24;6.32;;;1.85;;
36725;SDS011;44936;52.086;5.150;2023-07-08T13:03:54;3.58;;;1.88;;
36725;SDS011;44936;52.086;5.150;2023-07-08T13:06:25;5.32;;;1.83;;
36725;SDS011;44936;52.086;5.150;2023-07-08T13:09:00;5.22;;;2.47;;
36725;SDS011;44936;52.086;5.150;2023-07-08T13:11:33;3.97;;;1.80;;
36725;SDS011;44936;52.086;5.150;2023-07-08T13:14:00;10.43;;;2.03;;
36725;SDS011;44936;52.086;5.150;2023-07-08T13:16:30;4.85;;;2.08;;
36725;SDS011;44936;52.086;5.150;2023-07-08T13:18:58;4.47;;;2.20;;
36725;SDS011;44936;52.086;5.150;2023-07-08T13:21:25;4.30;;;1.75;;
36725;SDS011;44936;52.086;5.150;2023-07-08T13:23:52;4.07;;;2.08;;
36725;SDS011;44936;52.086;5.150;2023-07-08T13:26:19;2.53;;;1.45;;
36725;SDS011;44936;52.086;5.150;2023-07-08T13:28:47;7.50;;;2.28;;
36725;SDS011;44936;52.086;5.150;2023-07-08T13:31:15;5.60;;;2.35;;
36725;SDS011;44936;52.086;5.150;2023-07-08T13:33:46;6.28;;;1.92;;
36725;SDS011;44936;52.086;5.150;2023-07-08T13:36:18;4.95;;;1.85;;
36725;SDS011;44936;52.086;5.150;2023-07-08T13:38:46;2.97;;;1.83;;
36725;SDS011;44936;52.086;5.150;2023-07-08T13:41:15;4.82;;;2.00;;
36725;SDS011;44936;52.086;5.150;2023-07-08T13:43:44;7.35;;;2.20;;
36725;SDS011;44936;52.086;5.150;2023-07-08T13:48:55;3.95;;;1.58;;
36725;SDS011;44936;52.086;5.150;2023-07-08T13:51:28;4.18;;;2.03;;
36725;SDS011;44936;52.086;5.150;2023-07-08T13:54:00;6.00;;;2.47;;
36725;SDS011;44936;52.086;5.150;2023-07-08T13:56:34;5.38;;;2.28;;
36725;SDS011;44936;52.086;5.150;2023-07-08T13:59:01;5.50;;;2.70;;
36725;SDS011;44936;52.086;5.150;2023-07-08T14:01:29;4.60;;;1.60;;
36725;SDS011;44936;52.086;5.150;2023-07-08T14:03:56;3.97;;;2.13;;
36725;SDS011;44936;52.086;5.150;2023-07-08T14:06:27;6.53;;;2.47;;
36725;SDS011;44936;52.086;5.150;2023-07-08T14:08:59;4.88;;;1.83;;
36725;SDS011;44936;52.086;5.150;2023-07-08T14:11:34;5.05;;;1.85;;
36725;SDS011;44936;52.086;5.150;2023-07-08T14:14:00;3.95;;;1.70;;
36725;SDS011;44936;52.086;5.150;2023-07-08T14:16:26;3.92;;;1.58;;
36725;SDS011;44936;52.086;5.150;2023-07-08T14:18:57;2.65;;;1.75;;
36725;SDS011;44936;52.086;5.150;2023-07-08T14:21:31;3.90;;;1.60;;
36725;SDS011;44936;52.086;5.150;2023-07-08T14:23:57;4.85;;;2.15;;
36725;SDS011;44936;52.086;5.150;2023-07-08T14:26:23;6.05;;;1.83;;
36725;SDS011;44936;52.086;5.150;2023-07-08T14:28:48;2.88;;;1.65;;
36725;SDS011;44936;52.086;5.150;2023-07-08T14:31:15;4.43;;;1.80;;
36725;SDS011;44936;52.086;5.150;2023-07-08T14:33:45;4.00;;;1.55;;
36725;SDS011;44936;52.086;5.150;2023-07-08T14:36:10;5.00;;;1.80;;
36725;SDS011;44936;52.086;5.150;2023-07-08T14:38:36;4.00;;;1.98;;
36725;SDS011;44936;52.086;5.150;2023-07-08T14:41:02;3.50;;;1.90;;
36725;SDS011;44936;52.086;5.150;2023-07-08T14:43:28;4.32;;;1.92;;
36725;SDS011;44936;52.086;5.150;2023-07-08T14:45:58;9.93;;;2.00;;
36725;SDS011;44936;52.086;5.150;2023-07-08T14:48:27;4.60;;;2.00;;
36725;SDS011;44936;52.086;5.150;2023-07-08T14:50:56;5.60;;;2.00;;
36725;SDS011;44936;52.086;5.150;2023-07-08T14:53:22;3.45;;;1.88;;
36725;SDS011;44936;52.086;5.150;2023-07-08T14:55:48;2.70;;;1.70;;
36725;SDS011;44936;52.086;5.150;2023-07-08T14:58:29;4.05;;;1.75;;
36725;SDS011;44936;52.086;5.150;2023-07-08T15:00:57;4.18;;;2.00;;
36725;SDS011;44936;52.086;5.150;2023-07-08T15:03:25;4.15;;;1.92;;
36725;SDS011;44936;52.086;5.150;2023-07-08T15:05:52;4.47;;;1.88;;
36725;SDS011;44936;52.086;5.150;2023-07-08T15:08:17;3.65;;;1.77;;
36725;SDS011;44936;52.086;5.150;2023-07-08T15:10:50;4.30;;;1.65;;
36725;SDS011;44936;52.086;5.150;2023-07-08T15:13:17;3.17;;;1.65;;
36725;SDS011;44936;52.086;5.150;2023-07-08T15:15:45;5.22;;;2.05;;
36725;SDS011;44936;52.086;5.150;2023-07-08T15:18:15;7.55;;;2.08;;
36725;SDS011;44936;52.086;5.150;2023-07-08T15:20:41;3.88;;;2.00;;
36725;SDS011;44936;52.086;5.150;2023-07-08T15:23:07;3.45;;;1.80;;
36725;SDS011;44936;52.086;5.150;2023-07-08T15:25:34;5.70;;;1.98;;
36725;SDS011;44936;52.086;5.150;2023-07-08T15:28:01;5.55;;;2.22;;
36725;SDS011;44936;52.086;5.150;2023-07-08T15:30:31;4.05;;;2.00;;
36725;SDS011;44936;52.086;5.150;2023-07-08T15:32:57;4.50;;;1.65;;
36725;SDS011;44936;52.086;5.150;2023-07-08T15:35:24;3.80;;;1.73;;
36725;SDS011;44936;52.086;5.150;2023-07-08T15:37:58;4.78;;;1.95;;
36725;SDS011;44936;52.086;5.150;2023-07-08T15:40:31;2.30;;;1.40;;
36725;SDS011;44936;52.086;5.150;2023-07-08T15:42:58;4.22;;;1.77;;
36725;SDS011;44936;52.086;5.150;2023-07-08T15:45:26;3.50;;;1.83;;
36725;SDS011;44936;52.086;5.150;2023-07-08T15:47:55;4.35;;;2.15;;
36725;SDS011;44936;52.086;5.150;2023-07-08T15:50:21;4.28;;;1.85;;
36725;SDS011;44936;52.086;5.150;2023-07-08T15:52:49;4.13;;;1.83;;
36725;SDS011;44936;52.086;5.150;2023-07-08T15:55:17;5.00;;;2.00;;
36725;SDS011;44936;52.086;5.150;2023-07-08T15:57:53;3.08;;;1.90;;
36725;SDS011;44936;52.086;5.150;2023-07-08T16:00:26;4.15;;;2.03;;
36725;SDS011;44936;52.086;5.150;2023-07-08T16:02:56;3.78;;;1.70;;